Wetterstation Vordersexau
Wetterdaten: Woche 24.11.14 - 30.11.14 (KW48)
Datum Zeit Temp. A. Feuchte A. Luftdruck Regen Wind Richtung Taupunkt Windchill Windben
24.11.2014 00:00 6,6 C 83 % 990,5 hPa 0,0 l/m 0,0 km/h W-NW 3,9 C 6,6 C 0,0 km/h
24.11.2014 01:00 5,9 C 83 % 990,5 hPa 0,0 l/m 0,0 km/h W-NW 3,2 C 5,9 C 0,0 km/h
24.11.2014 02:00 5,8 C 82 % 990,4 hPa 0,0 l/m 0,0 km/h O 3,0 C 5,8 C 0,0 km/h
24.11.2014 03:00 6,3 C 81 % 990,1 hPa 0,0 l/m 0,0 km/h N-NO 3,3 C 6,3 C 0,0 km/h
24.11.2014 04:00 5,9 C 81 % 990,0 hPa 0,0 l/m 0,0 km/h N-NO 2,9 C 5,9 C 0,0 km/h
24.11.2014 05:00 6,4 C 80 % 989,9 hPa 0,0 l/m 0,0 km/h N-NO 3,2 C 6,4 C 0,0 km/h
24.11.2014 06:00 6,3 C 80 % 989,9 hPa 0,0 l/m 0,0 km/h S-SO 3,1 C 6,3 C 0,0 km/h
24.11.2014 07:00 5,0 C 81 % 990,9 hPa 0,0 l/m 0,0 km/h S-SO 2,0 C 5,0 C 0,0 km/h
24.11.2014 08:00 5,2 C 80 % 991,8 hPa 0,0 l/m 1,9 km/h SO 2,0 C 5,2 C 1,1 km/h
24.11.2014 09:00 12,8 C 84 % 992,5 hPa 0,0 l/m 1,9 km/h N-NW 10,2 C 12,8 C 1,1 km/h
24.11.2014 10:00 15,9 C 82 % 993,0 hPa 0,0 l/m 0,0 km/h N-NW 12,8 C 15,9 C 0,0 km/h
24.11.2014 11:00 18,9 C 70 % 992,7 hPa 0,0 l/m 0,0 km/h W-NW 13,3 C 18,9 C 0,0 km/h
24.11.2014 12:00 18,5 C 70 % 992,4 hPa 0,0 l/m 0,0 km/h W 12,9 C 18,5 C 0,0 km/h
24.11.2014 13:00 18,2 C 69 % 992,3 hPa 0,0 l/m 0,0 km/h W-NW 12,4 C 18,2 C 0,0 km/h
24.11.2014 14:00 16,1 C 71 % 992,6 hPa 0,0 l/m 0,0 km/h W 10,8 C 16,1 C 0,0 km/h
24.11.2014 15:00 12,7 C 78 % 993,1 hPa 0,0 l/m 3,9 km/h SW 9,0 C 12,7 C 2,2 km/h
24.11.2014 16:00 8,6 C 84 % 993,6 hPa 0,0 l/m 0,0 km/h SW 6,1 C 8,6 C 0,0 km/h
24.11.2014 17:00 8,4 C 86 % 994,0 hPa 0,0 l/m 0,0 km/h SW 6,2 C 8,4 C 0,0 km/h
24.11.2014 18:00 8,9 C 86 % 994,3 hPa 0,0 l/m 0,0 km/h W-SW 6,7 C 8,9 C 0,0 km/h
24.11.2014 19:00 8,6 C 86 % 994,1 hPa 0,0 l/m 0,0 km/h W-SW 6,4 C 8,6 C 0,0 km/h
24.11.2014 20:00 8,7 C 86 % 994,0 hPa 0,0 l/m 0,0 km/h W-SW 6,5 C 8,7 C 0,0 km/h
24.11.2014 21:00 8,5 C 86 % 994,3 hPa 0,0 l/m 0,0 km/h W-SW 6,3 C 8,5 C 0,0 km/h
24.11.2014 22:00 8,5 C 85 % 994,1 hPa 0,0 l/m 0,0 km/h W-SW 6,1 C 8,5 C 0,0 km/h
24.11.2014 23:00 8,1 C 85 % 994,6 hPa 0,0 l/m 0,0 km/h W-SW 5,7 C 8,1 C 0,0 km/h
25.11.2014 00:00 7,9 C 83 % 994,2 hPa 0,0 l/m 0,0 km/h W-SW 5,2 C 7,9 C 0,0 km/h
25.11.2014 01:00 7,8 C 83 % 993,6 hPa 0,0 l/m 0,0 km/h W-SW 5,1 C 7,8 C 0,0 km/h
25.11.2014 02:00 7,7 C 82 % 993,4 hPa 0,0 l/m 0,0 km/h W-SW 4,8 C 7,7 C 0,0 km/h
25.11.2014 03:00 7,3 C 81 % 993,1 hPa 0,0 l/m 0,0 km/h W-SW 4,3 C 7,3 C 0,0 km/h
25.11.2014 04:00 7,2 C 81 % 992,9 hPa 0,0 l/m 0,0 km/h W-SW 4,2 C 7,2 C 0,0 km/h
25.11.2014 05:00 7,1 C 80 % 992,8 hPa 0,0 l/m 0,0 km/h W-SW 3,9 C 7,1 C 0,0 km/h
25.11.2014 06:00 7,0 C 79 % 992,5 hPa 0,0 l/m 0,0 km/h W-SW 3,6 C 7,0 C 0,0 km/h
25.11.2014 07:00 6,9 C 79 % 992,3 hPa 0,0 l/m 0,0 km/h W-SW 3,5 C 6,9 C 0,0 km/h
25.11.2014 08:00 7,1 C 78 % 992,3 hPa 0,0 l/m 0,0 km/h W-SW 3,5 C 7,1 C 0,0 km/h
25.11.2014 09:00 7,4 C 77 % 992,4 hPa 0,0 l/m 0,0 km/h W-SW 3,6 C 7,4 C 0,0 km/h
25.11.2014 10:00 8,4 C 75 % 991,8 hPa 0,0 l/m 0,0 km/h W-NW 4,2 C 8,4 C 0,0 km/h
25.11.2014 11:00 8,9 C 79 % 991,6 hPa 0,0 l/m 0,0 km/h W-NW 5,5 C 8,9 C 0,0 km/h
25.11.2014 12:00 9,4 C 84 % 991,2 hPa 0,0 l/m 0,0 km/h NW 6,8 C 9,4 C 0,0 km/h
25.11.2014 13:00 9,5 C 86 % 990,7 hPa 0,0 l/m 0,0 km/h NW 7,3 C 9,5 C 0,0 km/h
25.11.2014 14:00 9,3 C 87 % 990,3 hPa 0,0 l/m 0,0 km/h NW 7,2 C 9,3 C 0,0 km/h
25.11.2014 15:00 8,6 C 86 % 989,8 hPa 0,0 l/m 0,0 km/h NW 6,4 C 8,6 C 0,0 km/h
25.11.2014 16:00 8,3 C 86 % 989,7 hPa 0,0 l/m 0,0 km/h W-NW 6,1 C 8,3 C 0,0 km/h
25.11.2014 17:00 7,9 C 86 % 989,7 hPa 0,0 l/m 0,0 km/h W-NW 5,7 C 7,9 C 0,0 km/h
25.11.2014 18:00 7,8 C 86 % 989,4 hPa 0,0 l/m 0,0 km/h NW 5,6 C 7,8 C 0,0 km/h
25.11.2014 19:00 7,5 C 86 % 989,0 hPa 0,0 l/m 0,0 km/h NW 5,3 C 7,5 C 0,0 km/h
25.11.2014 20:00 7,2 C 86 % 989,1 hPa 0,0 l/m 0,0 km/h NW 5,0 C 7,2 C 0,0 km/h
25.11.2014 21:00 7,1 C 85 % 989,0 hPa 0,0 l/m 0,0 km/h NW 4,8 C 7,1 C 0,0 km/h
25.11.2014 22:00 7,1 C 85 % 988,8 hPa 0,0 l/m 0,0 km/h NW 4,8 C 7,1 C 0,0 km/h
25.11.2014 23:00 7,2 C 85 % 988,5 hPa 0,0 l/m 0,0 km/h NW 4,9 C 7,2 C 0,0 km/h
26.11.2014 00:00 7,2 C 85 % 988,3 hPa 0,0 l/m 0,0 km/h NW 4,9 C 7,2 C 0,0 km/h
26.11.2014 01:00 6,9 C 85 % 987,6 hPa 0,0 l/m 0,0 km/h NW 4,6 C 6,9 C 0,0 km/h
26.11.2014 02:00 7,0 C 85 % 987,3 hPa 0,0 l/m 0,0 km/h NW 4,7 C 7,0 C 0,0 km/h
26.11.2014 03:00 6,2 C 85 % 987,0 hPa 0,0 l/m 0,0 km/h NW 3,9 C 6,2 C 0,0 km/h
26.11.2014 04:00 6,2 C 84 % 986,5 hPa 0,0 l/m 0,0 km/h NW 3,7 C 6,2 C 0,0 km/h
26.11.2014 05:00 6,4 C 84 % 986,2 hPa 0,0 l/m 0,0 km/h NW 3,9 C 6,4 C 0,0 km/h
26.11.2014 06:00 6,2 C 84 % 986,2 hPa 0,0 l/m 0,0 km/h NW 3,7 C 6,2 C 0,0 km/h
26.11.2014 07:00 5,9 C 84 % 986,3 hPa 0,0 l/m 0,0 km/h NW 3,4 C 5,9 C 0,0 km/h
26.11.2014 08:00 6,4 C 83 % 986,3 hPa 0,0 l/m 0,0 km/h NW 3,7 C 6,4 C 0,0 km/h
26.11.2014 09:00 7,3 C 82 % 986,3 hPa 0,0 l/m 0,0 km/h NW 4,4 C 7,3 C 0,0 km/h
26.11.2014 10:00 8,9 C 83 % 986,2 hPa 0,0 l/m 0,0 km/h NW 6,2 C 8,9 C 0,0 km/h
26.11.2014 11:00 14,2 C 84 % 985,5 hPa 0,0 l/m 0,0 km/h W-NW 11,5 C 14,2 C 0,0 km/h
26.11.2014 12:00 11,8 C 82 % 985,3 hPa 0,0 l/m 0,0 km/h SO 8,8 C 11,8 C 0,0 km/h
26.11.2014 13:00 14,3 C 76 % 984,5 hPa 0,0 l/m 0,0 km/h W-NW 10,1 C 14,3 C 0,0 km/h
26.11.2014 14:00 11,5 C 80 % 984,2 hPa 0,0 l/m 0,0 km/h W-NW 8,2 C 11,5 C 0,0 km/h
26.11.2014 15:00 9,8 C 84 % 984,1 hPa 0,0 l/m 0,0 km/h W-NW 7,2 C 9,8 C 0,0 km/h
26.11.2014 16:00 8,9 C 86 % 983,6 hPa 0,0 l/m 0,0 km/h W-NW 6,7 C 8,9 C 0,0 km/h
26.11.2014 17:00 8,4 C 86 % 983,7 hPa 0,0 l/m 0,0 km/h W 6,2 C 8,4 C 0,0 km/h
26.11.2014 18:00 7,8 C 86 % 983,9 hPa 0,0 l/m 17,5 km/h W 5,6 C 1,4 C 9,7 km/h
26.11.2014 19:00 7,5 C 86 % 983,7 hPa 0,0 l/m 0,0 km/h W 5,3 C 7,5 C 0,0 km/h
26.11.2014 20:00 7,3 C 86 % 983,5 hPa 0,0 l/m 0,0 km/h W 5,1 C 7,3 C 0,0 km/h
26.11.2014 21:00 7,2 C 86 % 983,6 hPa 0,0 l/m 0,0 km/h W 5,0 C 7,2 C 0,0 km/h
26.11.2014 22:00 6,9 C 86 % 983,2 hPa 0,0 l/m 0,0 km/h W 4,7 C 6,9 C 0,0 km/h
26.11.2014 23:00 6,8 C 86 % 982,8 hPa 0,2 l/m 0,0 km/h W 4,6 C 6,8 C 0,0 km/h
27.11.2014 00:00 6,3 C 85 % 982,6 hPa 0,0 l/m 0,0 km/h W 4,0 C 6,3 C 0,0 km/h
27.11.2014 01:00 6,1 C 85 % 981,9 hPa 0,0 l/m 0,0 km/h W 3,8 C 6,1 C 0,0 km/h
27.11.2014 02:00 6,1 C 84 % 981,3 hPa 0,0 l/m 0,0 km/h W 3,6 C 6,1 C 0,0 km/h
27.11.2014 03:00 5,9 C 84 % 981,1 hPa 0,0 l/m 0,0 km/h W 3,4 C 5,9 C 0,0 km/h
27.11.2014 04:00 5,9 C 83 % 980,7 hPa 0,0 l/m 0,0 km/h W 3,2 C 5,9 C 0,0 km/h
27.11.2014 05:00 5,9 C 83 % 980,0 hPa 0,0 l/m 0,0 km/h W 3,2 C 5,9 C 0,0 km/h
27.11.2014 06:00 5,9 C 82 % 979,9 hPa 0,0 l/m 0,0 km/h W 3,1 C 5,9 C 0,0 km/h
27.11.2014 07:00 5,9 C 82 % 979,8 hPa 0,0 l/m 0,0 km/h W 3,1 C 5,9 C 0,0 km/h
27.11.2014 08:00 6,1 C 81 % 979,8 hPa 0,0 l/m 0,0 km/h W 3,1 C 6,1 C 0,0 km/h
27.11.2014 09:00 6,4 C 80 % 979,8 hPa 0,0 l/m 0,0 km/h W 3,2 C 6,4 C 0,0 km/h
27.11.2014 10:00 7,2 C 79 % 979,7 hPa 0,0 l/m 0,0 km/h W 3,8 C 7,2 C 0,0 km/h
27.11.2014 11:00 7,2 C 79 % 979,4 hPa 0,0 l/m 1,9 km/h W 3,8 C 7,2 C 1,1 km/h
27.11.2014 12:00 7,3 C 79 % 979,5 hPa 0,0 l/m 0,0 km/h W 3,9 C 7,3 C 0,0 km/h
27.11.2014 13:00 8,3 C 80 % 979,2 hPa 0,0 l/m 0,0 km/h N 5,1 C 8,3 C 0,0 km/h
27.11.2014 14:00 12,3 C 86 % 977,9 hPa 0,0 l/m 0,0 km/h N 10,0 C 12,3 C 0,0 km/h
27.11.2014 15:00 14,6 C 77 % 977,9 hPa 0,0 l/m 0,0 km/h N-NW 10,6 C 14,6 C 0,0 km/h
27.11.2014 16:00 8,2 C 85 % 978,0 hPa 0,0 l/m 0,0 km/h NW 5,8 C 8,2 C 0,0 km/h
27.11.2014 17:00 7,4 C 86 % 978,4 hPa 0,0 l/m 0,0 km/h W-NW 5,2 C 7,4 C 0,0 km/h
27.11.2014 18:00 7,3 C 86 % 978,8 hPa 0,0 l/m 45,4 km/h W 5,1 C -5,9 C 25,2 km/h
27.11.2014 19:00 7,2 C 85 % 979,1 hPa 0,0 l/m 0,0 km/h W 4,9 C 7,2 C 0,0 km/h
27.11.2014 20:00 7,0 C 84 % 979,2 hPa 0,0 l/m 0,0 km/h W 4,5 C 7,0 C 0,0 km/h
27.11.2014 21:00 7,0 C 84 % 978,8 hPa 0,0 l/m 0,0 km/h W 4,5 C 7,0 C 0,0 km/h
27.11.2014 22:00 6,9 C 82 % 979,3 hPa 0,0 l/m 0,0 km/h W 4,0 C 6,9 C 0,0 km/h
27.11.2014 23:00 6,9 C 82 % 979,1 hPa 0,0 l/m 0,0 km/h W 4,0 C 6,9 C 0,0 km/h
28.11.2014 00:00 6,9 C 81 % 979,0 hPa 0,0 l/m 0,0 km/h W 3,9 C 6,9 C 0,0 km/h
28.11.2014 01:00 6,9 C 81 % 978,6 hPa 0,0 l/m 0,0 km/h W 3,9 C 6,9 C 0,0 km/h
28.11.2014 02:00 6,9 C 80 % 978,8 hPa 0,0 l/m 0,0 km/h W 3,7 C 6,9 C 0,0 km/h
28.11.2014 03:00 6,9 C 80 % 978,5 hPa 0,0 l/m 0,0 km/h W 3,7 C 6,9 C 0,0 km/h
28.11.2014 04:00 6,8 C 79 % 978,1 hPa 0,0 l/m 0,0 km/h W 3,4 C 6,8 C 0,0 km/h
28.11.2014 05:00 6,6 C 78 % 977,9 hPa 0,0 l/m 0,0 km/h W 3,0 C 6,6 C 0,0 km/h
28.11.2014 06:00 6,6 C 78 % 977,7 hPa 0,0 l/m 0,0 km/h SO 3,0 C 6,6 C 0,0 km/h
28.11.2014 07:00 6,1 C 79 % 978,3 hPa 0,0 l/m 0,0 km/h SO 2,7 C 6,1 C 0,0 km/h
28.11.2014 08:00 6,4 C 78 % 978,6 hPa 0,0 l/m 0,0 km/h W 2,8 C 6,4 C 0,0 km/h
28.11.2014 09:00 6,4 C 80 % 979,1 hPa 0,0 l/m 1,9 km/h N 3,2 C 6,4 C 1,1 km/h
28.11.2014 10:00 7,2 C 80 % 978,4 hPa 0,0 l/m 0,0 km/h SO 4,0 C 7,2 C 0,0 km/h
28.11.2014 11:00 8,2 C 86 % 978,0 hPa 0,0 l/m 0,0 km/h N-NW 6,0 C 8,2 C 0,0 km/h
28.11.2014 12:00 7,5 C 87 % 977,9 hPa 0,0 l/m 0,0 km/h W 5,5 C 7,5 C 0,0 km/h
28.11.2014 13:00 7,9 C 87 % 977,5 hPa 0,0 l/m 0,0 km/h N 5,9 C 7,9 C 0,0 km/h
28.11.2014 14:00 7,1 C 87 % 977,4 hPa 0,0 l/m 0,0 km/h W-NW 5,1 C 7,1 C 0,0 km/h
28.11.2014 15:00 6,3 C 87 % 978,0 hPa 0,0 l/m 0,0 km/h NW 4,3 C 6,3 C 0,0 km/h
28.11.2014 16:00 6,2 C 87 % 978,3 hPa 0,0 l/m 0,0 km/h NW 4,2 C 6,2 C 0,0 km/h
28.11.2014 17:00 5,9 C 87 % 978,6 hPa 0,0 l/m 0,0 km/h W-NW 3,9 C 5,9 C 0,0 km/h
28.11.2014 18:00 5,2 C 87 % 979,1 hPa 0,0 l/m 0,0 km/h W-NW 3,2 C 5,2 C 0,0 km/h
28.11.2014 19:00 4,5 C 87 % 979,7 hPa 0,0 l/m 0,0 km/h W 2,5 C 4,5 C 0,0 km/h
28.11.2014 20:00 3,9 C 87 % 980,7 hPa 0,0 l/m 0,0 km/h W 1,9 C 3,9 C 0,0 km/h
28.11.2014 21:00 3,8 C 87 % 981,2 hPa 0,0 l/m 0,0 km/h W 1,8 C 3,8 C 0,0 km/h
28.11.2014 22:00 3,6 C 87 % 981,8 hPa 0,0 l/m 0,0 km/h W 1,6 C 3,6 C 0,0 km/h
28.11.2014 23:00 3,5 C 87 % 981,8 hPa 0,0 l/m 0,0 km/h W 1,5 C 3,5 C 0,0 km/h
29.11.2014 00:00 3,3 C 86 % 982,2 hPa 0,0 l/m 0,0 km/h W 1,2 C 3,3 C 0,0 km/h
29.11.2014 01:00 3,3 C 85 % 982,3 hPa 0,0 l/m 0,0 km/h W 1,0 C 3,3 C 0,0 km/h
29.11.2014 02:00 3,3 C 84 % 982,5 hPa 0,0 l/m 0,0 km/h W 0,9 C 3,3 C 0,0 km/h
29.11.2014 03:00 3,3 C 84 % 982,6 hPa 0,0 l/m 0,0 km/h W 0,9 C 3,3 C 0,0 km/h
29.11.2014 04:00 3,4 C 84 % 982,5 hPa 0,0 l/m 0,0 km/h W 1,0 C 3,4 C 0,0 km/h
29.11.2014 05:00 3,5 C 84 % 982,6 hPa 0,0 l/m 0,0 km/h W-SW 1,1 C 3,5 C 0,0 km/h
29.11.2014 06:00 3,6 C 84 % 983,0 hPa 0,0 l/m 0,0 km/h W 1,2 C 3,6 C 0,0 km/h
29.11.2014 07:00 3,6 C 84 % 983,6 hPa 0,0 l/m 0,0 km/h N-NO 1,2 C 3,6 C 0,0 km/h
29.11.2014 08:00 3,8 C 85 % 984,0 hPa 0,0 l/m 0,0 km/h N-NO 1,5 C 3,8 C 0,0 km/h
29.11.2014 09:00 4,0 C 85 % 984,1 hPa 0,0 l/m 0,0 km/h N-NO 1,7 C 4,0 C 0,0 km/h
29.11.2014 10:00 4,4 C 86 % 984,1 hPa 0,0 l/m 0,0 km/h N-NO 2,3 C 4,4 C 0,0 km/h
29.11.2014 11:00 4,6 C 87 % 983,6 hPa 0,0 l/m 0,0 km/h N-NO 2,6 C 4,6 C 0,0 km/h
29.11.2014 12:00 4,8 C 87 % 983,2 hPa 0,0 l/m 0,0 km/h W-NW 2,8 C 4,8 C 0,0 km/h
29.11.2014 13:00 4,9 C 87 % 983,0 hPa 0,0 l/m 0,0 km/h NW 2,9 C 4,9 C 0,0 km/h
29.11.2014 14:00 5,2 C 86 % 983,1 hPa 0,0 l/m 0,0 km/h W-NW 3,1 C 5,2 C 0,0 km/h
29.11.2014 15:00 4,5 C 87 % 983,5 hPa 0,0 l/m 0,0 km/h W-NW 2,5 C 4,5 C 0,0 km/h
29.11.2014 16:00 4,2 C 87 % 983,8 hPa 0,0 l/m 0,0 km/h W-NW 2,2 C 4,2 C 0,0 km/h
29.11.2014 17:00 3,9 C 87 % 983,4 hPa 0,0 l/m 0,0 km/h W-NW 1,9 C 3,9 C 0,0 km/h
29.11.2014 18:00 3,9 C 87 % 983,4 hPa 0,0 l/m 0,0 km/h W-NW 1,9 C 3,9 C 0,0 km/h
29.11.2014 19:00 3,9 C 87 % 983,3 hPa 0,0 l/m 0,0 km/h W-NW 1,9 C 3,9 C 0,0 km/h
29.11.2014 20:00 3,9 C 87 % 983,6 hPa 0,0 l/m 0,0 km/h W 1,9 C 3,9 C 0,0 km/h
29.11.2014 21:00 3,9 C 87 % 983,5 hPa 0,0 l/m 0,0 km/h W 1,9 C 3,9 C 0,0 km/h
29.11.2014 22:00 3,9 C 87 % 983,6 hPa 0,0 l/m 0,0 km/h W 1,9 C 3,9 C 0,0 km/h
29.11.2014 23:00 3,9 C 87 % 983,5 hPa 0,0 l/m 0,0 km/h W 1,9 C 3,9 C 0,0 km/h
30.11.2014 00:00 3,9 C 87 % 983,5 hPa 0,0 l/m 0,0 km/h W 1,9 C 3,9 C 0,0 km/h
30.11.2014 01:00 3,8 C 87 % 983,4 hPa 0,0 l/m 0,0 km/h W-NW 1,8 C 3,8 C 0,0 km/h
30.11.2014 02:00 3,8 C 87 % 983,0 hPa 0,0 l/m 0,0 km/h W-NW 1,8 C 3,8 C 0,0 km/h
30.11.2014 03:00 3,8 C 87 % 982,9 hPa 0,0 l/m 0,0 km/h W-NW 1,8 C 3,8 C 0,0 km/h
30.11.2014 04:00 3,6 C 87 % 982,8 hPa 0,0 l/m 0,0 km/h W-NW 1,6 C 3,6 C 0,0 km/h
30.11.2014 05:00 3,6 C 87 % 983,3 hPa 0,0 l/m 0,0 km/h W 1,6 C 3,6 C 0,0 km/h
30.11.2014 06:00 3,6 C 87 % 982,8 hPa 0,0 l/m 0,0 km/h W 1,6 C 3,6 C 0,0 km/h
30.11.2014 07:00 3,5 C 87 % 983,1 hPa 0,0 l/m 0,0 km/h W-NW 1,5 C 3,5 C 0,0 km/h
30.11.2014 08:00 3,5 C 87 % 983,1 hPa 0,0 l/m 0,0 km/h S-SW 1,5 C 3,5 C 0,0 km/h
30.11.2014 09:00 3,8 C 87 % 983,5 hPa 0,0 l/m 0,0 km/h SO 1,8 C 3,8 C 0,0 km/h
30.11.2014 10:00 4,1 C 87 % 983,3 hPa 0,0 l/m 0,0 km/h SO 2,1 C 4,1 C 0,0 km/h
30.11.2014 11:00 4,3 C 87 % 982,7 hPa 0,0 l/m 0,0 km/h N-NO 2,3 C 4,3 C 0,0 km/h
30.11.2014 12:00 4,7 C 88 % 981,9 hPa 0,0 l/m 0,0 km/h N-NO 2,9 C 4,7 C 0,0 km/h
30.11.2014 13:00 4,3 C 88 % 981,6 hPa 0,0 l/m 0,0 km/h N-NO 2,5 C 4,3 C 0,0 km/h
30.11.2014 14:00 4,4 C 88 % 981,3 hPa 0,0 l/m 0,0 km/h N-NO 2,6 C 4,4 C 0,0 km/h
30.11.2014 15:00 4,1 C 88 % 981,0 hPa 0,0 l/m 0,0 km/h N-NO 2,3 C 4,1 C 0,0 km/h
30.11.2014 16:00 3,8 C 87 % 980,4 hPa 0,0 l/m 0,0 km/h N-NO 1,8 C 3,8 C 0,0 km/h
30.11.2014 17:00 3,8 C 87 % 980,7 hPa 0,0 l/m 0,0 km/h W-NW 1,8 C 3,8 C 0,0 km/h
30.11.2014 18:00 3,6 C 87 % 980,4 hPa 0,0 l/m 0,0 km/h N-NW 1,6 C 3,6 C 0,0 km/h
30.11.2014 19:00 3,5 C 87 % 979,8 hPa 0,0 l/m 0,0 km/h N-NW 1,5 C 3,5 C 0,0 km/h
30.11.2014 20:00 3,5 C 87 % 979,3 hPa 0,0 l/m 0,0 km/h N-NW 1,5 C 3,5 C 0,0 km/h
30.11.2014 21:00 3,3 C 87 % 978,9 hPa 0,0 l/m 0,0 km/h NW 1,3 C 3,3 C 0,0 km/h
30.11.2014 22:00 3,3 C 87 % 978,4 hPa 0,0 l/m 0,0 km/h NW 1,3 C 3,3 C 0,0 km/h
30.11.2014 23:00 3,1 C 87 % 977,7 hPa 0,0 l/m 0,0 km/h NW 1,2 C 3,1 C 0,0 km/h
Min-Datum _ 30.11.14 24.11.14 28.11.14 - 24.11.14 - 29.11.14 27.11.14 24.11.14
_ Min-Zeit 23:53 13:53 14:53 - 00:53 - 02:53 18:53 00:53
Minimum _ 3,1 C 69 % 977,4 hPa - 0,0 km/h - 0,9 C -5,9 C 0,0 km/h
Max-Datum _ 24.11.14 30.11.14 24.11.14 26.11.14 27.11.14 - 24.11.14 24.11.14 27.11.14
_ Max-Zeit 11:53 12:53 23:53 23:53 18:53 - 11:53 11:53 18:53
Maximum _ 18,9 C 88 % 994,6 hPa 0,2 l/m 45,4 km/h
W
- 13,3 C 18,9 C 25,2 km/h
W
Durchschnitt _ 6,7 C 84 % 984,6 hPa #0,2 l/m 0,4 km/h W 4,2 C 6,6 C 0,2 km/h
www.sexauwetter.de